Bill, Wyoming
Current Conditions -  °F | °C
As of 5:53 PM on Tuesday 27 Jan 2015 (Local Time) from KDGW Reporting Station
Clear Clear  
Wind Chill: 53°   Ceiling: Unl
Heat Index: 53°   Visibility: 10mi
Dew Point: 22°   Wind: 8mph
Humidity: 30%   Direction: 300°WNW
Pressure: 29.99"   Gusts: 33mph
Location:  42.76°N, 105.39°W
Report Text: KDGW 280053Z AUTO 30007G29KT 230V340 10SM CLR 12/M06 A2999 RMK AO2 PK WND 29029/0044 SLP140 T01171056
Loading
Personal Weather Stations






























Interactive Weather Map New forecast layout! Learn more

10-Day Weather Forecast

Advertisements
Track Severe Weather on mobile